createdAt,value
2023-04-29T00:02:46.187Z,11.59
2023-04-29T00:07:38.063Z,11.59
2023-04-29T00:12:31.926Z,11.59
2023-04-29T00:17:23.613Z,11.61
2023-04-29T00:22:15.689Z,11.61
2023-04-29T00:27:07.325Z,11.60
2023-04-29T00:31:59.288Z,11.61
2023-04-29T00:36:50.898Z,11.59
2023-04-29T00:41:42.704Z,11.61
2023-04-29T00:46:35.082Z,11.58
2023-04-29T00:51:27.144Z,11.58
2023-04-29T00:56:21.172Z,11.61
2023-04-29T01:01:13.155Z,11.65
2023-04-29T01:06:25.745Z,11.68
2023-04-29T01:11:23.363Z,11.70
2023-04-29T01:16:25.712Z,11.69
2023-04-29T01:21:18.132Z,11.68
2023-04-29T01:26:10.131Z,11.65
2023-04-29T01:31:11.445Z,11.63
2023-04-29T01:36:11.099Z,11.62
2023-04-29T01:41:10.188Z,11.61
2023-04-29T01:46:04.836Z,11.61
2023-04-29T01:50:56.435Z,11.60
2023-04-29T01:55:48.070Z,11.58
2023-04-29T02:00:39.737Z,11.58
2023-04-29T02:05:34.146Z,11.55
2023-04-29T02:10:26.101Z,11.51
2023-04-29T02:15:17.966Z,11.51
2023-04-29T02:20:10.999Z,11.51
2023-04-29T02:25:02.722Z,11.50
2023-04-29T02:29:54.522Z,11.49
2023-04-29T02:34:46.896Z,11.47
2023-04-29T02:39:38.600Z,11.48
2023-04-29T02:44:31.476Z,11.49
2023-04-29T02:49:23.096Z,11.45
2023-04-29T02:54:14.793Z,11.42
2023-04-29T02:59:06.446Z,11.39
2023-04-29T03:03:58.505Z,11.34
2023-04-29T03:08:50.594Z,11.32
2023-04-29T03:13:42.191Z,11.30
2023-04-29T03:18:33.722Z,11.30
2023-04-29T03:23:25.645Z,11.31
2023-04-29T03:28:17.890Z,11.29
2023-04-29T03:33:09.680Z,11.27
2023-04-29T03:38:01.323Z,11.29
2023-04-29T03:42:53.029Z,11.29
2023-04-29T03:47:44.657Z,11.30
2023-04-29T03:52:39.235Z,11.29
2023-04-29T03:57:30.790Z,11.26
2023-04-29T04:02:25.460Z,11.26
2023-04-29T04:07:17.280Z,11.20
2023-04-29T04:12:08.929Z,11.17
2023-04-29T04:17:01.314Z,11.13
2023-04-29T04:21:52.897Z,11.17
2023-04-29T04:26:44.445Z,11.19
2023-04-29T04:31:36.869Z,11.20
2023-04-29T04:36:28.513Z,11.21
2023-04-29T04:41:20.071Z,11.20
2023-04-29T04:46:12.956Z,11.16
2023-04-29T04:51:12.608Z,11.17
2023-04-29T04:56:04.781Z,11.16
2023-04-29T05:00:56.417Z,11.15
2023-04-29T05:05:56.524Z,11.13
2023-04-29T05:10:48.166Z,11.11
2023-04-29T05:15:40.034Z,11.11
2023-04-29T05:20:31.645Z,11.09
2023-04-29T05:25:23.405Z,11.10
2023-04-29T05:30:15.974Z,11.17
2023-04-29T05:35:07.999Z,11.17
2023-04-29T05:39:59.587Z,11.21
2023-04-29T05:44:51.418Z,11.23
2023-04-29T05:49:43.200Z,11.24
2023-04-29T05:54:35.375Z,11.27
2023-04-29T05:59:26.917Z,11.32
2023-04-29T06:04:18.716Z,11.36
2023-04-29T06:09:19.862Z,11.36
2023-04-29T06:14:15.907Z,11.37
2023-04-29T06:19:07.650Z,11.40
2023-04-29T06:23:59.331Z,11.39
2023-04-29T06:28:51.079Z,11.38
2023-04-29T06:33:43.015Z,11.42
2023-04-29T06:38:34.638Z,11.44
2023-04-29T06:43:29.711Z,11.45
2023-04-29T06:48:21.886Z,11.46
2023-04-29T06:53:13.526Z,11.50
2023-04-29T06:58:05.118Z,11.53
2023-04-29T07:02:56.883Z,11.56
2023-04-29T07:07:48.571Z,11.61
2023-04-29T07:12:41.792Z,11.67
2023-04-29T07:17:33.588Z,11.73
2023-04-29T07:22:26.016Z,11.86
2023-04-29T07:27:17.679Z,11.99
2023-04-29T07:32:09.264Z,12.16
2023-04-29T07:37:01.107Z,12.27
2023-04-29T07:41:52.687Z,12.40
2023-04-29T07:46:44.353Z,12.51
2023-04-29T07:51:35.996Z,12.56
2023-04-29T07:56:27.597Z,12.62
2023-04-29T08:01:19.286Z,12.63
2023-04-29T08:06:11.007Z,12.63
2023-04-29T08:11:02.717Z,12.64
2023-04-29T08:15:54.374Z,12.76
2023-04-29T08:20:48.447Z,12.88
2023-04-29T08:25:43.467Z,13.06
2023-04-29T08:30:38.800Z,13.21
2023-04-29T08:35:31.344Z,13.37
2023-04-29T08:40:22.939Z,13.47
2023-04-29T08:45:17.420Z,13.53
2023-04-29T08:50:09.398Z,13.56
2023-04-29T08:55:05.547Z,13.48
2023-04-29T09:00:00.171Z,13.49
2023-04-29T09:05:17.998Z,13.60
2023-04-29T09:10:10.873Z,13.80
2023-04-29T09:15:04.446Z,14.41
2023-04-29T09:19:57.201Z,15.24
2023-04-29T09:24:48.958Z,15.55
2023-04-29T09:30:01.037Z,16.01
2023-04-29T09:34:52.869Z,16.18
2023-04-29T09:39:44.693Z,16.39
2023-04-29T09:44:36.733Z,17.24
2023-04-29T09:49:35.550Z,18.24
2023-04-29T09:54:30.582Z,18.93
2023-04-29T09:59:23.025Z,19.22
2023-04-29T10:04:16.571Z,19.40
2023-04-29T10:09:13.649Z,19.38
2023-04-29T10:14:06.829Z,19.19
2023-04-29T10:19:03.746Z,19.22
2023-04-29T10:23:57.737Z,19.26
2023-04-29T10:28:51.776Z,19.83
2023-04-29T10:33:48.112Z,20.08
2023-04-29T10:38:44.187Z,20.49
2023-04-29T10:43:36.051Z,20.99
2023-04-29T10:48:27.672Z,20.94
2023-04-29T10:53:20.124Z,20.90
2023-04-29T10:58:42.192Z,20.71
2023-04-29T11:03:47.088Z,20.90
2023-04-29T11:08:43.233Z,20.80
2023-04-29T11:13:46.705Z,20.61
2023-04-29T11:19:10.106Z,20.86
2023-04-29T11:24:02.829Z,20.83
2023-04-29T11:28:56.680Z,20.92
2023-04-29T11:33:48.283Z,20.70
2023-04-29T11:38:43.618Z,20.54
2023-04-29T11:43:35.172Z,20.52
2023-04-29T11:48:27.035Z,20.41
2023-04-29T11:53:25.284Z,20.24
2023-04-29T11:58:18.085Z,20.23
2023-04-29T12:03:17.756Z,20.26
2023-04-29T12:08:09.574Z,20.34
2023-04-29T12:13:01.359Z,20.33
2023-04-29T12:17:53.194Z,20.35
2023-04-29T12:22:44.951Z,20.32
2023-04-29T12:27:37.155Z,20.29
2023-04-29T12:32:28.884Z,20.17
2023-04-29T12:37:22.678Z,20.13
2023-04-29T12:42:18.112Z,20.08
2023-04-29T12:47:11.571Z,20.03
2023-04-29T12:52:04.201Z,20.03
2023-04-29T12:56:55.835Z,19.90
2023-04-29T13:01:47.420Z,19.70
2023-04-29T13:06:39.702Z,19.51
2023-04-29T13:11:34.285Z,19.51
2023-04-29T13:16:26.376Z,19.44
2023-04-29T13:21:17.961Z,19.34
2023-04-29T13:26:10.858Z,19.22
2023-04-29T13:31:02.439Z,19.12
2023-04-29T13:35:54.122Z,19.06
2023-04-29T13:40:47.079Z,19.02
2023-04-29T13:45:42.856Z,19.00
2023-04-29T13:51:14.454Z,18.92
2023-04-29T14:01:02.092Z,18.80
2023-04-29T14:05:54.197Z,18.60
2023-04-29T14:10:46.082Z,18.38
2023-04-29T14:15:37.726Z,18.20
2023-04-29T14:20:29.348Z,17.96
2023-04-29T14:25:21.147Z,17.64
2023-04-29T14:30:13.231Z,17.46
2023-04-29T14:35:05.209Z,17.35
2023-04-29T14:39:56.810Z,17.15
2023-04-29T14:44:48.433Z,16.98
2023-04-29T14:49:40.553Z,16.86
2023-04-29T14:54:32.179Z,16.72
2023-04-29T14:59:23.876Z,16.57
2023-04-29T15:04:15.434Z,16.47
2023-04-29T15:09:08.014Z,16.40
2023-04-29T15:14:00.234Z,16.43
2023-04-29T15:18:52.028Z,16.41
2023-04-29T15:23:43.660Z,16.43
2023-04-29T15:28:35.252Z,16.34
2023-04-29T15:33:26.973Z,16.33
2023-04-29T15:38:18.560Z,16.32
2023-04-29T15:43:10.265Z,16.32
2023-04-29T15:48:01.828Z,16.33
2023-04-29T15:52:55.922Z,16.41
2023-04-29T15:57:47.529Z,16.46
2023-04-29T16:02:39.204Z,16.61
2023-04-29T16:07:31.264Z,16.85
2023-04-29T16:12:22.936Z,16.95
2023-04-29T16:17:15.539Z,16.83
2023-04-29T16:22:08.761Z,16.67
2023-04-29T16:27:01.550Z,16.63
2023-04-29T16:31:53.315Z,16.60
2023-04-29T16:36:45.028Z,16.56
2023-04-29T16:41:37.421Z,16.52
2023-04-29T16:46:30.407Z,16.51
2023-04-29T16:51:25.270Z,16.53
2023-04-29T16:56:17.116Z,16.53
2023-04-29T17:01:08.808Z,16.55
2023-04-29T17:06:00.855Z,16.52
2023-04-29T17:10:53.466Z,16.58
2023-04-29T17:15:45.141Z,16.56
2023-04-29T17:20:36.816Z,16.54
2023-04-29T17:25:28.898Z,16.55
2023-04-29T17:30:20.655Z,16.51
2023-04-29T17:35:12.525Z,16.47
2023-04-29T17:40:04.665Z,16.33
2023-04-29T17:44:56.375Z,16.25
2023-04-29T17:49:48.839Z,16.20
2023-04-29T17:54:41.213Z,16.15
2023-04-29T17:59:32.813Z,16.08
2023-04-29T18:04:24.812Z,16.09
2023-04-29T18:09:17.869Z,16.06
2023-04-29T18:14:09.655Z,16.01
2023-04-29T18:19:01.388Z,15.98
2023-04-29T18:23:54.500Z,15.91
2023-04-29T18:28:46.771Z,15.88
2023-04-29T18:33:38.499Z,15.87
2023-04-29T18:38:30.299Z,15.80
2023-04-29T18:43:24.716Z,15.78
2023-04-29T18:48:17.083Z,15.77
2023-04-29T18:53:08.847Z,15.76
2023-04-29T18:58:00.523Z,15.76
2023-04-29T19:02:52.191Z,15.75
2023-04-29T19:07:44.264Z,15.74
2023-04-29T19:12:35.981Z,15.70
2023-04-29T19:17:27.820Z,15.65
2023-04-29T19:22:19.452Z,15.61
2023-04-29T19:27:11.218Z,15.56
2023-04-29T19:32:03.671Z,15.53
2023-04-29T19:36:55.915Z,15.46
2023-04-29T19:41:47.470Z,15.39
2023-04-29T19:46:39.193Z,15.33
2023-04-29T19:51:31.193Z,15.22
2023-04-29T19:56:23.461Z,15.14
2023-04-29T20:01:15.410Z,15.01
2023-04-29T20:06:07.823Z,14.99
2023-04-29T20:11:00.921Z,14.91
2023-04-29T20:15:54.234Z,14.86
2023-04-29T20:20:45.885Z,14.81
2023-04-29T20:25:37.877Z,14.79
2023-04-29T20:30:29.554Z,14.79
2023-04-29T20:35:21.667Z,14.76
2023-04-29T20:40:14.225Z,14.65
2023-04-29T20:45:06.818Z,14.58
2023-04-29T20:49:58.409Z,14.49
2023-04-29T20:54:52.319Z,14.44
2023-04-29T20:59:43.939Z,14.39
2023-04-29T21:04:35.616Z,14.32
2023-04-29T21:09:27.913Z,14.23
2023-04-29T21:14:19.470Z,14.11
2023-04-29T21:19:11.158Z,13.99
2023-04-29T21:24:03.085Z,13.88
2023-04-29T21:28:54.652Z,13.79
2023-04-29T21:33:46.575Z,13.71
2023-04-29T21:38:38.245Z,13.57
2023-04-29T21:43:30.114Z,13.48
2023-04-29T21:48:21.985Z,13.40
2023-04-29T21:53:16.494Z,13.33
2023-04-29T21:58:08.447Z,13.23
2023-04-29T22:03:01.252Z,13.16
2023-04-29T22:07:53.352Z,13.08
2023-04-29T22:12:44.988Z,13.00
2023-04-29T22:17:41.647Z,12.97
2023-04-29T22:22:33.318Z,12.95
2023-04-29T22:27:24.985Z,12.92
2023-04-29T22:32:16.627Z,12.85
2023-04-29T22:37:08.453Z,12.85
2023-04-29T22:42:00.054Z,12.83
2023-04-29T22:46:51.918Z,12.79
2023-04-29T22:51:43.475Z,12.80
2023-04-29T22:56:35.102Z,12.78
2023-04-29T23:01:26.798Z,12.74
2023-04-29T23:06:18.468Z,12.71
2023-04-29T23:11:11.728Z,12.67
2023-04-29T23:16:03.764Z,12.60
2023-04-29T23:20:56.752Z,12.52
2023-04-29T23:25:49.014Z,12.53
2023-04-29T23:30:40.810Z,12.52
2023-04-29T23:35:32.687Z,12.50
2023-04-29T23:40:24.272Z,12.50
2023-04-29T23:45:16.007Z,12.47
2023-04-29T23:50:08.113Z,12.42
2023-04-29T23:55:00.003Z,12.34
2023-04-29T23:59:53.002Z,12.31
